Osnaburg, Ohio
Current Conditions -  °F | °C
As of 3:51 AM on Thursday 18 Dec 2014 (Local Time) from KCAK Reporting Station
Overcast Overcast  
Wind Chill: 20°   Ceiling: 2100
Heat Index: 28°   Visibility: 10mi
Dew Point: 20°   Wind: 8mph
Humidity: 72%   Direction: 300°WNW
Pressure: 30.18"   Gusts: NA
Location:  40.7679°N, 81.2601°W
Report Text: KCAK 180851Z 30007KT 10SM OVC021 M02/M07 A3018 RMK AO2 SLP232 T10221067 51008
Loading
Personal Weather Stations






























Interactive Weather Map New forecast layout! Learn more

10-Day Weather Forecast

Advertisements
Track Severe Weather on mobile